Time,TemperatureF,DewpointF,PressureIn,WindDirection,WindDirectionDegrees,WindSpeedMPH,WindSpeedGustMPH,Humidity,HourlyPrecipIn,Conditions,Clouds,dailyrainin,SoftwareType,DateUTC
2013-05-20 00:02:00,62.6,50.0,29.48,SSW,194,0.0,0.0,63,0.00,,,0.00,WUHU216WMR968SP,2013-05-20 07:02:00,
2013-05-20 00:07:00,62.6,50.0,29.48,SSW,194,0.0,0.0,63,0.00,,,0.00,WUHU216WMR968SP,2013-05-20 07:07:00,
2013-05-20 00:12:00,61.9,49.3,29.48,SSW,194,0.0,0.0,63,0.00,,,0.00,WUHU216WMR968SP,2013-05-20 07:12:00,
2013-05-20 00:17:00,61.9,49.7,29.48,SSW,194,0.0,0.0,64,0.00,,,0.00,WUHU216WMR968SP,2013-05-20 07:17:00,
2013-05-20 00:22:00,62.1,49.9,29.48,SSW,194,0.0,0.0,64,0.00,,,0.00,WUHU216WMR968SP,2013-05-20 07:22:00,
2013-05-20 00:27:00,62.1,49.9,29.48,SSW,194,0.0,0.0,64,0.00,,,0.00,WUHU216WMR968SP,2013-05-20 07:27:00,
2013-05-20 00:32:00,61.9,49.7,29.48,SSW,194,0.0,0.0,64,0.00,,,0.00,WUHU216WMR968SP,2013-05-20 07:32:00,
2013-05-20 00:37:00,61.9,49.7,29.48,SSW,194,0.0,0.0,64,0.00,,,0.00,WUHU216WMR968SP,2013-05-20 07:37:00,
2013-05-20 00:42:00,61.7,49.6,29.48,SSW,194,0.0,0.0,64,0.00,,,0.00,WUHU216WMR968SP,2013-05-20 07:42:00,
2013-05-20 00:47:00,61.7,50.0,29.48,SSW,194,0.0,0.0,65,0.00,,,0.00,WUHU216WMR968SP,2013-05-20 07:47:00,
2013-05-20 00:52:00,61.3,49.6,29.48,SSW,194,0.0,0.0,65,0.00,,,0.00,WUHU216WMR968SP,2013-05-20 07:52:00,
2013-05-20 00:57:00,60.8,49.1,29.48,SSW,194,0.0,0.0,65,0.00,,,0.00,WUHU216WMR968SP,2013-05-20 07:57:00,
2013-05-20 01:02:00,60.4,48.7,29.48,SSW,194,0.0,0.0,65,0.00,,,0.00,WUHU216WMR968SP,2013-05-20 08:02:00,
2013-05-20 01:07:00,60.6,49.3,29.48,SSW,194,0.0,0.0,66,0.00,,,0.00,WUHU216WMR968SP,2013-05-20 08:07:00,
2013-05-20 01:12:00,60.8,49.1,29.48,SSW,194,0.0,0.0,65,0.00,,,0.00,WUHU216WMR968SP,2013-05-20 08:12:00,
2013-05-20 01:17:00,60.6,49.3,29.48,SSW,194,0.0,0.0,66,0.00,,,0.00,WUHU216WMR968SP,2013-05-20 08:17:00,
2013-05-20 01:22:00,60.4,49.1,29.48,SSW,194,0.0,0.0,66,0.00,,,0.00,WUHU216WMR968SP,2013-05-20 08:22:00,
2013-05-20 01:27:00,60.1,48.8,29.48,SSW,194,0.0,0.0,66,0.00,,,0.00,WUHU216WMR968SP,2013-05-20 08:27:00,
2013-05-20 01:32:00,59.9,48.7,29.48,SSW,194,0.0,0.0,66,0.00,,,0.00,WUHU216WMR968SP,2013-05-20 08:32:00,
2013-05-20 01:37:00,59.9,48.7,29.48,SSW,194,0.0,0.0,66,0.00,,,0.00,WUHU216WMR968SP,2013-05-20 08:37:00,
2013-05-20 01:42:00,59.9,48.7,29.48,SSW,194,0.0,0.0,66,0.00,,,0.00,WUHU216WMR968SP,2013-05-20 08:42:00,
2013-05-20 01:47:00,59.9,49.1,29.48,SSW,194,0.0,0.0,67,0.00,,,0.00,WUHU216WMR968SP,2013-05-20 08:47:00,
2013-05-20 01:52:00,59.7,48.9,29.48,SSW,194,0.0,0.0,67,0.00,,,0.00,WUHU216WMR968SP,2013-05-20 08:52:00,
2013-05-20 01:57:00,59.7,48.9,29.48,SSW,194,0.0,0.0,67,0.00,,,0.00,WUHU216WMR968SP,2013-05-20 08:57:00,
2013-05-20 02:02:00,60.1,49.3,29.48,SSW,194,0.0,0.0,67,0.00,,,0.00,WUHU216WMR968SP,2013-05-20 09:02:00,
2013-05-20 02:07:00,60.3,49.4,29.48,SSW,194,0.0,0.0,67,0.00,,,0.00,WUHU216WMR968SP,2013-05-20 09:07:00,
2013-05-20 02:12:00,60.4,49.1,29.48,SSW,194,0.0,0.0,66,0.00,,,0.00,WUHU216WMR968SP,2013-05-20 09:12:00,
2013-05-20 02:17:00,60.4,49.1,29.48,SSW,194,0.0,0.0,66,0.00,,,0.00,WUHU216WMR968SP,2013-05-20 09:17:00,
2013-05-20 02:22:00,60.8,49.1,29.48,SSW,194,0.0,0.0,65,0.00,,,0.00,WUHU216WMR968SP,2013-05-20 09:22:00,
2013-05-20 02:27:00,60.8,48.7,29.48,SSW,194,0.0,0.0,64,0.00,,,0.00,WUHU216WMR968SP,2013-05-20 09:27:00,
2013-05-20 02:32:00,60.1,48.4,29.48,SSW,194,0.0,0.0,65,0.00,,,0.00,WUHU216WMR968SP,2013-05-20 09:32:00,
2013-05-20 02:37:00,60.1,48.4,29.48,SSW,194,0.0,0.0,65,0.00,,,0.00,WUHU216WMR968SP,2013-05-20 09:37:00,
2013-05-20 02:42:00,60.1,48.4,29.48,SSW,194,0.0,0.0,65,0.00,,,0.00,WUHU216WMR968SP,2013-05-20 09:42:00,
2013-05-20 02:47:00,59.9,48.3,29.48,SSW,194,0.0,0.0,65,0.00,,,0.00,WUHU216WMR968SP,2013-05-20 09:47:00,
2013-05-20 02:52:00,59.9,48.3,29.48,SSW,194,0.0,0.0,65,0.00,,,0.00,WUHU216WMR968SP,2013-05-20 09:52:00,
2013-05-20 02:57:00,60.1,48.4,29.48,SSW,194,0.0,0.0,65,0.00,,,0.00,WUHU216WMR968SP,2013-05-20 09:57:00,
2013-05-20 03:02:00,60.1,48.8,29.48,SSW,194,0.0,0.0,66,0.00,,,0.00,WUHU216WMR968SP,2013-05-20 10:02:00,
2013-05-20 03:07:00,60.4,49.1,29.48,SSW,194,0.0,0.0,66,0.00,,,0.00,WUHU216WMR968SP,2013-05-20 10:07:00,
2013-05-20 03:12:00,60.4,48.7,29.48,SSW,194,0.0,0.0,65,0.00,,,0.00,WUHU216WMR968SP,2013-05-20 10:12:00,
2013-05-20 03:17:00,60.3,48.6,29.48,SSW,194,0.0,0.0,65,0.00,,,0.00,WUHU216WMR968SP,2013-05-20 10:17:00,
2013-05-20 03:22:00,59.9,48.3,29.48,SSW,194,0.0,0.0,65,0.00,,,0.00,WUHU216WMR968SP,2013-05-20 10:22:00,
2013-05-20 03:27:00,59.4,47.8,29.48,SSW,194,0.0,0.0,65,0.00,,,0.00,WUHU216WMR968SP,2013-05-20 10:27:00,
2013-05-20 03:32:00,59.4,47.8,29.48,SSW,194,0.0,0.0,65,0.00,,,0.00,WUHU216WMR968SP,2013-05-20 10:32:00,
2013-05-20 03:37:00,59.4,48.2,29.48,SSW,194,0.0,0.0,66,0.00,,,0.00,WUHU216WMR968SP,2013-05-20 10:37:00,
2013-05-20 03:42:00,59.4,48.2,29.48,SSW,194,0.0,0.0,66,0.00,,,0.00,WUHU216WMR968SP,2013-05-20 10:42:00,
2013-05-20 03:47:00,59.4,48.2,29.48,SSW,194,0.0,0.0,66,0.00,,,0.00,WUHU216WMR968SP,2013-05-20 10:47:00,
2013-05-20 03:52:00,59.2,48.0,29.48,SSW,194,0.0,0.0,66,0.00,,,0.00,WUHU216WMR968SP,2013-05-20 10:52:00,
2013-05-20 03:57:00,59.0,47.8,29.48,SSW,194,0.0,0.0,66,0.00,,,0.00,WUHU216WMR968SP,2013-05-20 10:57:00,
2013-05-20 04:02:00,58.8,47.6,29.48,SSW,194,0.0,0.0,66,0.00,,,0.00,WUHU216WMR968SP,2013-05-20 11:02:00,
2013-05-20 04:07:00,58.6,47.8,29.48,SSW,194,0.0,0.0,67,0.00,,,0.00,WUHU216WMR968SP,2013-05-20 11:07:00,
2013-05-20 04:12:00,58.8,48.0,29.48,SSW,194,0.0,0.0,67,0.00,,,0.00,WUHU216WMR968SP,2013-05-20 11:12:00,
2013-05-20 04:17:00,58.8,48.0,29.48,SSW,194,0.0,0.0,67,0.00,,,0.00,WUHU216WMR968SP,2013-05-20 11:17:00,
2013-05-20 04:22:00,58.8,48.0,29.48,SSW,194,0.0,0.0,67,0.00,,,0.00,WUHU216WMR968SP,2013-05-20 11:22:00,
2013-05-20 04:27:00,58.6,47.8,29.48,SSW,194,0.0,0.0,67,0.00,,,0.00,WUHU216WMR968SP,2013-05-20 11:27:00,
2013-05-20 04:32:00,58.6,47.8,29.48,SSW,194,0.0,0.0,67,0.00,,,0.00,WUHU216WMR968SP,2013-05-20 11:32:00,
2013-05-20 04:37:00,58.8,48.0,29.48,SSW,194,0.0,0.0,67,0.00,,,0.00,WUHU216WMR968SP,2013-05-20 11:37:00,
2013-05-20 04:42:00,58.8,48.0,29.48,SSW,194,0.0,0.0,67,0.00,,,0.00,WUHU216WMR968SP,2013-05-20 11:42:00,
2013-05-20 04:47:00,58.8,48.4,29.48,SSW,194,0.0,0.0,68,0.00,,,0.00,WUHU216WMR968SP,2013-05-20 11:47:00,
2013-05-20 04:52:00,59.0,48.6,29.48,SSW,194,0.0,0.0,68,0.00,,,0.00,WUHU216WMR968SP,2013-05-20 11:52:00,
2013-05-20 04:57:00,58.8,48.4,29.48,SSW,194,0.0,0.0,68,0.00,,,0.00,WUHU216WMR968SP,2013-05-20 11:57:00,
2013-05-20 05:02:00,58.8,48.4,29.48,SSW,194,0.0,0.0,68,0.00,,,0.00,WUHU216WMR968SP,2013-05-20 12:02:00,
2013-05-20 05:07:00,58.6,48.2,29.51,SSW,194,0.0,0.0,68,0.00,,,0.00,WUHU216WMR968SP,2013-05-20 12:07:00,
2013-05-20 05:12:00,58.3,47.9,29.51,SSW,194,0.0,0.0,68,0.00,,,0.00,WUHU216WMR968SP,2013-05-20 12:12:00,
2013-05-20 05:17:00,58.3,47.9,29.51,SSW,194,0.0,0.0,68,0.00,,,0.00,WUHU216WMR968SP,2013-05-20 12:17:00,
2013-05-20 05:22:00,57.9,47.5,29.51,SSW,194,0.0,0.0,68,0.00,,,0.00,WUHU216WMR968SP,2013-05-20 12:22:00,
2013-05-20 05:27:00,57.7,47.3,29.51,SSW,194,0.0,0.0,68,0.00,,,0.00,WUHU216WMR968SP,2013-05-20 12:27:00,
2013-05-20 05:32:00,57.9,47.9,29.51,SSW,194,0.0,0.0,69,0.00,,,0.00,WUHU216WMR968SP,2013-05-20 12:32:00,
2013-05-20 05:37:00,58.1,48.1,29.51,SSW,194,0.0,0.0,69,0.00,,,0.00,WUHU216WMR968SP,2013-05-20 12:37:00,
2013-05-20 05:42:00,58.3,48.7,29.51,SSW,194,0.0,0.0,70,0.00,,,0.00,WUHU216WMR968SP,2013-05-20 12:42:00,
2013-05-20 05:47:00,58.5,48.9,29.51,SSW,194,0.0,0.0,70,0.00,,,0.00,WUHU216WMR968SP,2013-05-20 12:47:00,
2013-05-20 05:52:00,58.5,48.9,29.51,SSW,194,0.0,0.0,70,0.00,,,0.00,WUHU216WMR968SP,2013-05-20 12:52:00,
2013-05-20 05:57:00,58.5,48.9,29.51,SSW,195,0.0,0.0,70,0.00,,,0.00,WUHU216WMR968SP,2013-05-20 12:57:00,
2013-05-20 06:02:00,58.1,48.1,29.51,SSW,195,0.0,0.0,69,0.00,,,0.00,WUHU216WMR968SP,2013-05-20 13:02:00,
2013-05-20 06:07:00,57.9,47.9,29.51,SSW,194,0.0,0.0,69,0.00,,,0.00,WUHU216WMR968SP,2013-05-20 13:07:00,
2013-05-20 06:12:00,58.1,48.5,29.51,SSW,194,0.0,0.0,70,0.00,,,0.00,WUHU216WMR968SP,2013-05-20 13:12:00,
2013-05-20 06:17:00,58.1,48.5,29.51,SSW,194,0.0,0.0,70,0.00,,,0.00,WUHU216WMR968SP,2013-05-20 13:17:00,
2013-05-20 06:22:00,58.1,48.5,29.51,SSW,194,0.0,0.0,70,0.00,,,0.00,WUHU216WMR968SP,2013-05-20 13:22:00,
2013-05-20 06:27:00,58.3,48.7,29.51,SSW,194,0.0,0.0,70,0.00,,,0.00,WUHU216WMR968SP,2013-05-20 13:27:00,
2013-05-20 06:32:00,58.5,48.9,29.51,SSW,194,0.0,0.0,70,0.00,,,0.00,WUHU216WMR968SP,2013-05-20 13:32:00,
2013-05-20 06:37:00,58.6,49.4,29.51,SSW,194,0.0,0.0,71,0.00,,,0.00,WUHU216WMR968SP,2013-05-20 13:37:00,
2013-05-20 06:42:00,59.0,49.7,29.51,SSW,194,0.0,0.0,71,0.00,,,0.00,WUHU216WMR968SP,2013-05-20 13:42:00,
2013-05-20 06:47:00,59.2,49.6,29.51,SSW,194,0.0,0.0,70,0.00,,,0.00,WUHU216WMR968SP,2013-05-20 13:47:00,
2013-05-20 06:52:00,59.2,49.6,29.51,SSW,194,0.0,0.0,70,0.00,,,0.00,WUHU216WMR968SP,2013-05-20 13:52:00,
2013-05-20 06:57:00,59.4,49.7,29.51,SSW,194,0.0,0.0,70,0.00,,,0.00,WUHU216WMR968SP,2013-05-20 13:57:00,
2013-05-20 07:02:00,59.5,49.8,29.51,SSW,194,0.0,0.0,70,0.00,,,0.00,WUHU216WMR968SP,2013-05-20 14:02:00,
2013-05-20 07:07:00,59.7,50.0,29.51,SSW,194,0.0,0.0,70,0.00,,,0.00,WUHU216WMR968SP,2013-05-20 14:07:00,
2013-05-20 07:12:00,60.3,50.6,29.51,SSW,195,0.0,0.0,70,0.00,,,0.00,WUHU216WMR968SP,2013-05-20 14:12:00,
2013-05-20 07:17:00,61.0,50.9,29.51,SSE,156,0.0,0.0,69,0.00,,,0.00,WUHU216WMR968SP,2013-05-20 14:17:00,
2013-05-20 07:22:00,61.7,51.2,29.51,SSE,156,0.0,0.0,68,0.00,,,0.00,WUHU216WMR968SP,2013-05-20 14:22:00,
2013-05-20 07:27:00,62.4,51.5,29.51,SSE,156,0.0,0.0,67,0.00,,,0.00,WUHU216WMR968SP,2013-05-20 14:27:00,
2013-05-20 07:32:00,63.1,51.3,29.51,SSE,156,0.0,0.0,65,0.00,,,0.00,WUHU216WMR968SP,2013-05-20 14:32:00,
2013-05-20 07:37:00,63.9,51.6,29.51,SSE,157,0.0,0.0,64,0.00,,,0.00,WUHU216WMR968SP,2013-05-20 14:37:00,
2013-05-20 07:43:00,64.8,52.1,29.51,SSE,157,0.0,0.0,63,0.00,,,0.00,WUHU216WMR968SP,2013-05-20 14:43:00,
2013-05-20 07:48:00,65.5,51.9,29.51,SSE,157,0.0,0.0,61,0.00,,,0.00,WUHU216WMR968SP,2013-05-20 14:48:00,
2013-05-20 07:53:00,66.4,51.8,29.48,SSE,152,0.0,3.1,59,0.00,,,0.00,WUHU216WMR968SP,2013-05-20 14:53:00,
2013-05-20 07:58:00,66.9,51.3,29.48,SSW,207,0.0,3.6,57,0.00,,,0.00,WUHU216WMR968SP,2013-05-20 14:58:00,
2013-05-20 08:03:00,67.6,51.5,29.48,SSW,194,0.0,4.0,56,0.00,,,0.00,WUHU216WMR968SP,2013-05-20 15:03:00,
2013-05-20 08:08:00,68.2,51.5,29.48,SW,234,0.0,4.0,55,0.00,,,0.00,WUHU216WMR968SP,2013-05-20 15:08:00,
2013-05-20 08:13:00,68.5,51.3,29.48,ESE,112,0.0,3.6,54,0.00,,,0.00,WUHU216WMR968SP,2013-05-20 15:13:00,
2013-05-20 08:18:00,68.5,51.3,29.48,ESE,121,2.7,4.9,54,0.00,,,0.00,WUHU216WMR968SP,2013-05-20 15:18:00,
2013-05-20 08:23:00,68.5,51.3,29.48,South,183,2.2,4.9,54,0.00,,,0.00,WUHU216WMR968SP,2013-05-20 15:23:00,
2013-05-20 08:28:00,68.9,51.7,29.48,SW,220,3.1,4.0,54,0.00,,,0.00,WUHU216WMR968SP,2013-05-20 15:28:00,
2013-05-20 08:33:00,68.5,50.8,29.48,WSW,252,2.2,4.0,53,0.00,,,0.00,WUHU216WMR968SP,2013-05-20 15:33:00,
2013-05-20 08:38:00,68.2,50.5,29.48,WSW,242,0.0,4.0,53,0.00,,,0.00,WUHU216WMR968SP,2013-05-20 15:38:00,
2013-05-20 08:43:00,67.8,50.7,29.48,SSW,202,0.0,4.0,54,0.00,,,0.00,WUHU216WMR968SP,2013-05-20 15:43:00,
2013-05-20 08:48:00,68.0,50.8,29.48,SW,219,2.2,4.5,54,0.00,,,0.00,WUHU216WMR968SP,2013-05-20 15:48:00,
2013-05-20 08:53:00,67.8,50.7,29.48,SW,236,3.1,4.9,54,0.00,,,0.00,WUHU216WMR968SP,2013-05-20 15:53:00,
2013-05-20 08:58:00,68.0,50.8,29.48,SW,229,2.7,4.9,54,0.00,,,0.00,WUHU216WMR968SP,2013-05-20 15:58:00,
2013-05-20 09:03:00,68.4,51.2,29.48,WNW,283,4.0,5.4,54,0.00,,,0.00,WUHU216WMR968SP,2013-05-20 16:03:00,
2013-05-20 09:08:00,68.5,50.8,29.48,SW,228,3.6,5.8,53,0.00,,,0.00,WUHU216WMR968SP,2013-05-20 16:08:00,
2013-05-20 09:13:00,68.5,50.8,29.48,West,266,0.0,5.8,53,0.00,,,0.00,WUHU216WMR968SP,2013-05-20 16:13:00,
2013-05-20 09:18:00,68.7,51.5,29.48,SW,218,3.1,5.8,54,0.00,,,0.00,WUHU216WMR968SP,2013-05-20 16:18:00,
2013-05-20 09:23:00,69.3,52.1,29.48,SW,220,3.6,5.8,54,0.00,,,0.00,WUHU216WMR968SP,2013-05-20 16:23:00,
2013-05-20 09:28:00,69.4,51.6,29.48,West,273,2.7,6.3,53,0.00,,,0.00,WUHU216WMR968SP,2013-05-20 16:28:00,
2013-05-20 09:33:00,69.3,51.5,29.48,WSW,242,2.7,6.3,53,0.00,,,0.00,WUHU216WMR968SP,2013-05-20 16:33:00,
2013-05-20 09:38:00,69.4,51.6,29.48,West,259,2.7,6.3,53,0.00,,,0.00,WUHU216WMR968SP,2013-05-20 16:38:00,
2013-05-20 09:43:00,69.8,52.0,29.48,SW,216,2.7,6.3,53,0.00,,,0.00,WUHU216WMR968SP,2013-05-20 16:43:00,
2013-05-20 09:48:00,70.2,52.4,29.48,WSW,238,2.2,7.6,53,0.00,,,0.00,WUHU216WMR968SP,2013-05-20 16:48:00,
2013-05-20 09:53:00,70.5,52.7,29.45,SW,235,4.9,8.1,53,0.00,,,0.00,WUHU216WMR968SP,2013-05-20 16:53:00,
2013-05-20 09:58:00,70.7,52.8,29.45,WSW,248,4.0,8.1,53,0.00,,,0.00,WUHU216WMR968SP,2013-05-20 16:58:00,
2013-05-20 10:03:00,71.2,53.3,29.45,WNW,291,2.7,5.8,53,0.00,,,0.00,WUHU216WMR968SP,2013-05-20 17:03:00,
2013-05-20 10:08:00,71.6,53.1,29.45,SW,233,4.0,6.3,52,0.00,,,0.00,WUHU216WMR968SP,2013-05-20 17:08:00,
2013-05-20 10:13:00,72.0,53.5,29.45,West,265,2.7,6.3,52,0.00,,,0.00,WUHU216WMR968SP,2013-05-20 17:13:00,
2013-05-20 10:18:00,72.3,53.8,29.45,SW,222,3.6,6.3,52,0.00,,,0.00,WUHU216WMR968SP,2013-05-20 17:18:00,
2013-05-20 10:23:00,72.7,54.2,29.45,SW,216,2.7,5.8,52,0.00,,,0.00,WUHU216WMR968SP,2013-05-20 17:23:00,
2013-05-20 10:28:00,72.9,54.3,29.45,WNW,283,2.7,5.8,52,0.00,,,0.00,WUHU216WMR968SP,2013-05-20 17:28:00,
2013-05-20 10:33:00,73.4,54.3,29.45,South,175,4.5,6.3,51,0.00,,,0.00,WUHU216WMR968SP,2013-05-20 17:33:00,
2013-05-20 10:38:00,73.9,54.7,29.45,SSW,196,3.6,6.3,51,0.00,,,0.00,WUHU216WMR968SP,2013-05-20 17:38:00,
2013-05-20 10:43:00,74.1,54.9,29.45,SE,146,4.5,7.6,51,0.00,,,0.00,WUHU216WMR968SP,2013-05-20 17:43:00,
2013-05-20 10:48:00,74.7,55.5,29.45,SW,226,4.0,7.6,51,0.00,,,0.00,WUHU216WMR968SP,2013-05-20 17:48:00,
2013-05-20 10:53:00,74.5,55.3,29.45,SW,233,3.6,5.8,51,0.00,,,0.00,WUHU216WMR968SP,2013-05-20 17:53:00,
2013-05-20 10:58:00,74.3,55.1,29.45,WNW,302,3.1,6.3,51,0.00,,,0.00,WUHU216WMR968SP,2013-05-20 17:58:00,
2013-05-20 11:03:00,74.5,55.3,29.45,SSW,208,3.1,6.3,51,0.00,,,0.00,WUHU216WMR968SP,2013-05-20 18:03:00,
2013-05-20 11:08:00,75.0,55.7,29.45,SSW,200,3.6,7.6,51,0.00,,,0.00,WUHU216WMR968SP,2013-05-20 18:08:00,
2013-05-20 11:13:00,75.4,55.6,29.45,WNW,300,3.1,7.6,50,0.00,,,0.00,WUHU216WMR968SP,2013-05-20 18:13:00,
2013-05-20 11:18:00,75.9,56.0,29.45,WSW,237,4.5,7.2,50,0.00,,,0.00,WUHU216WMR968SP,2013-05-20 18:18:00,
2013-05-20 11:23:00,75.9,56.0,29.45,SW,234,4.9,7.2,50,0.00,,,0.00,WUHU216WMR968SP,2013-05-20 18:23:00,
2013-05-20 11:28:00,76.1,56.2,29.45,SSW,211,4.9,8.3,50,0.00,,,0.00,WUHU216WMR968SP,2013-05-20 18:28:00,
2013-05-20 11:33:00,76.6,56.7,29.45,ESE,103,5.8,8.3,50,0.00,,,0.00,WUHU216WMR968SP,2013-05-20 18:33:00,
2013-05-20 11:38:00,76.8,55.7,29.45,WNW,286,4.0,8.1,48,0.00,,,0.00,WUHU216WMR968SP,2013-05-20 18:38:00,
2013-05-20 11:43:00,76.8,55.7,29.45,WNW,292,4.5,7.6,48,0.00,,,0.00,WUHU216WMR968SP,2013-05-20 18:43:00,
2013-05-20 11:48:00,77.2,56.0,29.45,WSW,239,4.0,7.6,48,0.00,,,0.00,WUHU216WMR968SP,2013-05-20 18:48:00,
2013-05-20 11:53:00,77.2,56.0,29.45,SW,235,2.7,7.6,48,0.00,,,0.00,WUHU216WMR968SP,2013-05-20 18:53:00,
2013-05-20 11:58:00,77.7,56.5,29.45,SW,216,5.8,8.1,48,0.00,,,0.00,WUHU216WMR968SP,2013-05-20 18:58:00,
2013-05-20 12:03:00,78.1,56.9,29.45,WSW,243,3.6,8.1,48,0.00,,,0.00,WUHU216WMR968SP,2013-05-20 19:03:00,
2013-05-20 12:08:00,78.1,56.9,29.45,WSW,237,3.6,7.6,48,0.00,,,0.00,WUHU216WMR968SP,2013-05-20 19:08:00,
2013-05-20 12:13:00,78.4,57.2,29.45,WSW,238,4.9,5.8,48,0.00,,,0.00,WUHU216WMR968SP,2013-05-20 19:13:00,
2013-05-20 12:18:00,78.8,56.9,29.45,SSW,209,4.0,8.1,47,0.00,,,0.00,WUHU216WMR968SP,2013-05-20 19:18:00,
2013-05-20 12:23:00,79.5,57.6,29.45,WSW,239,4.5,8.1,47,0.00,,,0.00,WUHU216WMR968SP,2013-05-20 19:23:00,
2013-05-20 12:28:00,79.3,57.4,29.45,SSW,205,3.1,8.1,47,0.00,,,0.00,WUHU216WMR968SP,2013-05-20 19:28:00,
2013-05-20 12:33:00,80.1,58.1,29.45,WSW,239,6.3,8.3,47,0.00,,,0.00,WUHU216WMR968SP,2013-05-20 19:33:00,
2013-05-20 12:38:00,80.4,58.4,29.42,SW,223,2.7,8.3,47,0.00,,,0.00,WUHU216WMR968SP,2013-05-20 19:38:00,
2013-05-20 12:43:00,79.9,56.7,29.42,WSW,248,2.7,8.1,45,0.00,,,0.00,WUHU216WMR968SP,2013-05-20 19:43:00,
2013-05-20 12:48:00,80.1,56.9,29.42,SW,235,3.6,8.7,45,0.00,,,0.00,WUHU216WMR968SP,2013-05-20 19:48:00,
2013-05-20 12:53:00,80.6,58.6,29.42,WSW,237,4.5,8.7,47,0.00,,,0.00,WUHU216WMR968SP,2013-05-20 19:53:00,
2013-05-20 12:58:00,81.0,57.0,29.42,SW,225,5.8,8.3,44,0.00,,,0.00,WUHU216WMR968SP,2013-05-20 19:58:00,
2013-05-20 13:03:00,81.1,57.1,29.42,SW,218,4.0,8.1,44,0.00,,,0.00,WUHU216WMR968SP,2013-05-20 20:03:00,
2013-05-20 13:08:00,81.9,57.9,29.42,SW,223,5.4,7.6,44,0.00,,,0.00,WUHU216WMR968SP,2013-05-20 20:08:00,
2013-05-20 13:13:00,82.0,57.9,29.42,SW,221,5.8,7.6,44,0.00,,,0.00,WUHU216WMR968SP,2013-05-20 20:13:00,
2013-05-20 13:18:00,82.2,58.1,29.42,NW,310,5.4,10.5,44,0.00,,,0.00,WUHU216WMR968SP,2013-05-20 20:18:00,
2013-05-20 13:23:00,81.9,57.9,29.42,SW,231,3.1,10.5,44,0.00,,,0.00,WUHU216WMR968SP,2013-05-20 20:23:00,
2013-05-20 13:28:00,82.2,58.1,29.42,West,278,4.0,8.3,44,0.00,,,0.00,WUHU216WMR968SP,2013-05-20 20:28:00,
2013-05-20 13:33:00,81.9,57.9,29.42,West,276,4.9,8.3,44,0.00,,,0.00,WUHU216WMR968SP,2013-05-20 20:33:00,
2013-05-20 13:38:00,82.2,58.1,29.42,NW,314,4.5,7.6,44,0.00,,,0.00,WUHU216WMR968SP,2013-05-20 20:38:00,
2013-05-20 13:43:00,82.4,58.3,29.42,WNW,293,3.1,7.6,44,0.00,,,0.00,WUHU216WMR968SP,2013-05-20 20:43:00,
2013-05-20 13:48:00,82.9,58.8,29.42,West,265,5.4,8.1,44,0.00,,,0.00,WUHU216WMR968SP,2013-05-20 20:48:00,
2013-05-20 13:53:00,83.1,58.9,29.42,WSW,247,4.5,8.3,44,0.00,,,0.00,WUHU216WMR968SP,2013-05-20 20:53:00,
2013-05-20 13:58:00,82.9,58.8,29.42,SW,225,5.4,8.3,44,0.00,,,0.00,WUHU216WMR968SP,2013-05-20 20:58:00,
2013-05-20 14:03:00,83.3,59.1,29.42,WSW,244,6.3,8.1,44,0.00,,,0.00,WUHU216WMR968SP,2013-05-20 21:03:00,
2013-05-20 14:08:00,83.7,59.5,29.42,SW,232,4.0,8.7,44,0.00,,,0.00,WUHU216WMR968SP,2013-05-20 21:08:00,
2013-05-20 14:13:00,83.8,59.6,29.42,WSW,240,6.3,8.7,44,0.00,,,0.00,WUHU216WMR968SP,2013-05-20 21:13:00,
2013-05-20 14:18:00,84.2,59.3,29.42,WSW,255,5.4,9.6,43,0.00,,,0.00,WUHU216WMR968SP,2013-05-20 21:18:00,
2013-05-20 14:23:00,84.6,59.6,29.39,WSW,249,4.5,9.6,43,0.00,,,0.00,WUHU216WMR968SP,2013-05-20 21:23:00,
2013-05-20 14:28:00,84.6,59.6,29.39,West,270,3.1,8.7,43,0.00,,,0.00,WUHU216WMR968SP,2013-05-20 21:28:00,
2013-05-20 14:34:00,83.8,59.6,29.39,WSW,251,4.5,7.6,44,0.00,,,0.00,WUHU216WMR968SP,2013-05-20 21:34:00,
2013-05-20 14:39:00,84.2,59.3,29.39,SW,232,6.3,10.1,43,0.00,,,0.00,WUHU216WMR968SP,2013-05-20 21:39:00,
2013-05-20 14:44:00,84.7,59.7,29.39,SSW,209,3.1,10.1,43,0.00,,,0.00,WUHU216WMR968SP,2013-05-20 21:44:00,
2013-05-20 14:49:00,84.7,59.7,29.39,SW,229,4.0,8.7,43,0.00,,,0.00,WUHU216WMR968SP,2013-05-20 21:49:00,
2013-05-20 14:54:00,84.2,59.3,29.39,WSW,256,3.6,8.7,43,0.00,,,0.00,WUHU216WMR968SP,2013-05-20 21:54:00,
2013-05-20 14:59:00,84.6,59.6,29.39,West,261,8.1,10.1,43,0.00,,,0.00,WUHU216WMR968SP,2013-05-20 21:59:00,
2013-05-20 15:04:00,84.4,59.5,29.39,SW,227,4.5,10.1,43,0.00,,,0.00,WUHU216WMR968SP,2013-05-20 22:04:00,
2013-05-20 15:09:00,84.4,59.5,29.39,WSW,241,6.3,10.1,43,0.00,,,0.00,WUHU216WMR968SP,2013-05-20 22:09:00,
2013-05-20 15:14:00,84.0,59.8,29.39,WSW,251,4.5,10.1,44,0.00,,,0.00,WUHU216WMR968SP,2013-05-20 22:14:00,
2013-05-20 15:19:00,84.0,59.8,29.39,WSW,251,5.8,8.7,44,0.00,,,0.00,WUHU216WMR968SP,2013-05-20 22:19:00,
2013-05-20 15:24:00,84.0,59.8,29.39,SW,230,6.7,8.3,44,0.00,,,0.00,WUHU216WMR968SP,2013-05-20 22:24:00,
2013-05-20 15:29:00,83.5,59.3,29.39,SSW,211,5.4,7.6,44,0.00,,,0.00,WUHU216WMR968SP,2013-05-20 22:29:00,
2013-05-20 15:34:00,83.5,59.3,29.39,SW,227,6.3,8.7,44,0.00,,,0.00,WUHU216WMR968SP,2013-05-20 22:34:00,
2013-05-20 15:39:00,83.5,59.3,29.39,SW,216,7.2,10.1,44,0.00,,,0.00,WUHU216WMR968SP,2013-05-20 22:39:00,
2013-05-20 15:44:00,83.1,58.9,29.39,SW,224,8.1,11.0,44,0.00,,,0.00,WUHU216WMR968SP,2013-05-20 22:44:00,
2013-05-20 15:49:00,83.1,58.9,29.39,SW,227,4.5,11.0,44,0.00,,,0.00,WUHU216WMR968SP,2013-05-20 22:49:00,
2013-05-20 15:54:00,83.1,58.9,29.39,SW,217,4.5,8.7,44,0.00,,,0.00,WUHU216WMR968SP,2013-05-20 22:54:00,
2013-05-20 15:59:00,83.1,58.9,29.39,SW,236,4.9,10.5,44,0.00,,,0.00,WUHU216WMR968SP,2013-05-20 22:59:00,
2013-05-20 16:04:00,82.8,58.7,29.39,SW,233,4.5,10.5,44,0.00,,,0.00,WUHU216WMR968SP,2013-05-20 23:04:00,
2013-05-20 16:09:00,82.4,58.3,29.39,WNW,293,4.5,11.0,44,0.00,,,0.00,WUHU216WMR968SP,2013-05-20 23:09:00,
2013-05-20 16:14:00,82.4,58.3,29.39,WSW,240,6.3,11.0,44,0.00,,,0.00,WUHU216WMR968SP,2013-05-20 23:14:00,
2013-05-20 16:19:00,82.8,58.7,29.39,WSW,242,5.4,10.1,44,0.00,,,0.00,WUHU216WMR968SP,2013-05-20 23:19:00,
2013-05-20 16:24:00,82.8,58.7,29.36,SW,214,4.9,8.7,44,0.00,,,0.00,WUHU216WMR968SP,2013-05-20 23:24:00,
2013-05-20 16:29:00,82.8,58.7,29.36,SE,133,4.0,8.7,44,0.00,,,0.00,WUHU216WMR968SP,2013-05-20 23:29:00,
2013-05-20 16:34:00,82.4,58.3,29.36,WSW,237,5.8,8.7,44,0.00,,,0.00,WUHU216WMR968SP,2013-05-20 23:34:00,
2013-05-20 16:39:00,81.9,57.9,29.39,SSW,193,4.9,10.1,44,0.00,,,0.00,WUHU216WMR968SP,2013-05-20 23:39:00,
2013-05-20 16:44:00,81.5,57.5,29.39,SW,232,3.1,10.1,44,0.00,,,0.00,WUHU216WMR968SP,2013-05-20 23:44:00,
2013-05-20 16:49:00,81.3,57.3,29.39,WSW,240,5.8,8.3,44,0.00,,,0.00,WUHU216WMR968SP,2013-05-20 23:49:00,
2013-05-20 16:54:00,81.0,57.0,29.36,South,190,5.4,8.1,44,0.00,,,0.00,WUHU216WMR968SP,2013-05-20 23:54:00,
2013-05-20 16:59:00,80.6,56.7,29.36,SW,234,2.2,8.1,44,0.00,,,0.00,WUHU216WMR968SP,2013-05-20 23:59:00,
2013-05-20 17:04:00,80.4,57.1,29.36,SSW,204,4.5,8.7,45,0.00,,,0.00,WUHU216WMR968SP,2013-05-21 00:04:00,
2013-05-20 17:09:00,80.2,57.0,29.36,SSW,194,5.4,8.7,45,0.00,,,0.00,WUHU216WMR968SP,2013-05-21 00:09:00,
2013-05-20 17:14:00,80.1,56.9,29.36,SW,220,4.9,8.7,45,0.00,,,0.00,WUHU216WMR968SP,2013-05-21 00:14:00,
2013-05-20 17:19:00,80.2,57.0,29.36,SW,220,6.3,9.2,45,0.00,,,0.00,WUHU216WMR968SP,2013-05-21 00:19:00,
2013-05-20 17:24:00,80.1,56.9,29.36,SSW,192,4.0,9.2,45,0.00,,,0.00,WUHU216WMR968SP,2013-05-21 00:24:00,
2013-05-20 17:29:00,79.9,56.7,29.36,South,191,4.9,8.1,45,0.00,,,0.00,WUHU216WMR968SP,2013-05-21 00:29:00,
2013-05-20 17:34:00,79.9,56.7,29.36,WSW,240,4.0,8.1,45,0.00,,,0.00,WUHU216WMR968SP,2013-05-21 00:34:00,
2013-05-20 17:39:00,79.9,56.7,29.39,SSW,204,4.5,8.1,45,0.00,,,0.00,WUHU216WMR968SP,2013-05-21 00:39:00,
2013-05-20 17:44:00,79.7,56.5,29.39,ESE,107,4.5,8.1,45,0.00,,,0.00,WUHU216WMR968SP,2013-05-21 00:44:00,
2013-05-20 17:50:00,79.5,56.3,29.39,SSW,213,3.1,7.6,45,0.00,,,0.00,WUHU216WMR968SP,2013-05-21 00:50:00,
2013-05-20 17:55:00,79.3,56.1,29.39,SSW,203,5.4,7.6,45,0.00,,,0.00,WUHU216WMR968SP,2013-05-21 00:55:00,
2013-05-20 18:00:00,79.2,56.0,29.39,SSW,205,3.6,7.6,45,0.00,,,0.00,WUHU216WMR968SP,2013-05-21 01:00:00,
2013-05-20 18:05:00,78.8,55.7,29.39,SW,223,4.5,8.1,45,0.00,,,0.00,WUHU216WMR968SP,2013-05-21 01:05:00,
2013-05-20 18:10:00,78.4,55.3,29.39,WSW,243,3.1,8.1,45,0.00,,,0.00,WUHU216WMR968SP,2013-05-21 01:10:00,
2013-05-20 18:15:00,78.1,55.0,29.39,SW,215,6.3,8.3,45,0.00,,,0.00,WUHU216WMR968SP,2013-05-21 01:15:00,
2013-05-20 18:20:00,77.9,54.9,29.39,South,175,4.5,8.3,45,0.00,,,0.00,WUHU216WMR968SP,2013-05-21 01:20:00,
2013-05-20 18:25:00,77.7,54.7,29.39,East,90,4.5,7.6,45,0.00,,,0.00,WUHU216WMR968SP,2013-05-21 01:25:00,
2013-05-20 18:30:00,77.5,54.5,29.39,WSW,241,4.5,7.6,45,0.00,,,0.00,WUHU216WMR968SP,2013-05-21 01:30:00,
2013-05-20 18:35:00,77.4,54.4,29.39,SW,217,5.4,7.6,45,0.00,,,0.00,WUHU216WMR968SP,2013-05-21 01:35:00,
2013-05-20 18:40:00,77.4,54.4,29.39,SW,224,4.9,6.3,45,0.00,,,0.00,WUHU216WMR968SP,2013-05-21 01:40:00,
2013-05-20 18:45:00,77.2,54.2,29.39,SW,229,4.5,6.3,45,0.00,,,0.00,WUHU216WMR968SP,2013-05-21 01:45:00,
2013-05-20 18:50:00,76.8,53.9,29.39,WSW,242,5.4,6.3,45,0.00,,,0.00,WUHU216WMR968SP,2013-05-21 01:50:00,
2013-05-20 18:55:00,76.3,53.4,29.42,SSW,202,3.6,6.3,45,0.00,,,0.00,WUHU216WMR968SP,2013-05-21 01:55:00,
2013-05-20 19:00:00,76.1,53.2,29.42,SSW,210,4.0,6.3,45,0.00,,,0.00,WUHU216WMR968SP,2013-05-21 02:00:00,
2013-05-20 19:05:00,75.2,54.2,29.42,South,186,4.5,6.3,48,0.00,,,0.00,WUHU216WMR968SP,2013-05-21 02:05:00,
2013-05-20 19:10:00,74.8,53.8,29.42,West,264,3.1,7.6,48,0.00,,,0.00,WUHU216WMR968SP,2013-05-21 02:10:00,
2013-05-20 19:15:00,74.5,53.6,29.42,WSW,242,4.5,7.6,48,0.00,,,0.00,WUHU216WMR968SP,2013-05-21 02:15:00,
2013-05-20 19:20:00,73.9,53.0,29.42,SSW,207,4.0,6.3,48,0.00,,,0.00,WUHU216WMR968SP,2013-05-21 02:20:00,
2013-05-20 19:25:00,73.6,52.7,29.42,WSW,253,4.0,5.8,48,0.00,,,0.00,WUHU216WMR968SP,2013-05-21 02:25:00,
2013-05-20 19:30:00,73.4,52.6,29.42,SW,227,2.2,5.8,48,0.00,,,0.00,WUHU216WMR968SP,2013-05-21 02:30:00,
2013-05-20 19:35:00,73.0,52.8,29.42,WSW,256,2.7,5.4,49,0.00,,,0.00,WUHU216WMR968SP,2013-05-21 02:35:00,
2013-05-20 19:40:00,72.5,52.3,29.42,SW,224,3.6,5.4,49,0.00,,,0.00,WUHU216WMR968SP,2013-05-21 02:40:00,
2013-05-20 19:45:00,72.1,53.1,29.42,SSW,195,4.0,5.4,51,0.00,,,0.00,WUHU216WMR968SP,2013-05-21 02:45:00,
2013-05-20 19:50:00,72.0,53.0,29.42,SSW,213,3.1,4.9,51,0.00,,,0.00,WUHU216WMR968SP,2013-05-21 02:50:00,
2013-05-20 19:55:00,71.8,52.8,29.42,SW,236,3.1,4.0,51,0.00,,,0.00,WUHU216WMR968SP,2013-05-21 02:55:00,
2013-05-20 20:00:00,71.2,52.8,29.42,SW,222,4.0,5.4,52,0.00,,,0.00,WUHU216WMR968SP,2013-05-21 03:00:00,
2013-05-20 20:05:00,70.9,52.5,29.45,SW,228,2.2,5.8,52,0.00,,,0.00,WUHU216WMR968SP,2013-05-21 03:05:00,
2013-05-20 20:10:00,70.5,52.1,29.45,SW,218,3.1,5.8,52,0.00,,,0.00,WUHU216WMR968SP,2013-05-21 03:10:00,
2013-05-20 20:15:00,70.5,52.1,29.45,SSW,203,2.7,5.4,52,0.00,,,0.00,WUHU216WMR968SP,2013-05-21 03:15:00,
2013-05-20 20:20:00,70.2,51.8,29.45,South,183,3.1,4.0,52,0.00,,,0.00,WUHU216WMR968SP,2013-05-21 03:20:00,
2013-05-20 20:25:00,70.0,52.2,29.45,SE,144,3.1,4.0,53,0.00,,,0.00,WUHU216WMR968SP,2013-05-21 03:25:00,
2013-05-20 20:30:00,69.6,51.8,29.45,SE,129,2.2,4.0,53,0.00,,,0.00,WUHU216WMR968SP,2013-05-21 03:30:00,
2013-05-20 20:35:00,69.3,51.5,29.45,SSW,196,0.0,5.8,53,0.00,,,0.00,WUHU216WMR968SP,2013-05-21 03:35:00,
2013-05-20 20:40:00,69.1,51.3,29.45,WSW,244,0.0,5.8,53,0.00,,,0.00,WUHU216WMR968SP,2013-05-21 03:40:00,
2013-05-20 20:45:00,68.7,51.5,29.45,WSW,237,3.1,4.9,54,0.00,,,0.00,WUHU216WMR968SP,2013-05-21 03:45:00,
2013-05-20 20:50:00,68.5,51.3,29.45,WSW,240,2.2,4.9,54,0.00,,,0.00,WUHU216WMR968SP,2013-05-21 03:50:00,
2013-05-20 20:55:00,68.4,51.7,29.45,South,190,3.6,4.0,55,0.00,,,0.00,WUHU216WMR968SP,2013-05-21 03:55:00,
2013-05-20 21:00:00,68.0,51.3,29.45,ESE,114,0.0,4.9,55,0.00,,,0.00,WUHU216WMR968SP,2013-05-21 04:00:00,
2013-05-20 21:05:00,67.8,51.7,29.45,ESE,116,2.7,4.9,56,0.00,,,0.00,WUHU216WMR968SP,2013-05-21 04:05:00,
2013-05-20 21:10:00,67.6,52.0,29.45,South,185,0.0,3.6,57,0.00,,,0.00,WUHU216WMR968SP,2013-05-21 04:10:00,
2013-05-20 21:15:00,67.6,52.0,29.45,SSW,197,0.0,3.1,57,0.00,,,0.00,WUHU216WMR968SP,2013-05-21 04:15:00,
2013-05-20 21:20:00,67.6,52.0,29.45,South,169,0.0,3.6,57,0.00,,,0.00,WUHU216WMR968SP,2013-05-21 04:20:00,
2013-05-20 21:25:00,67.6,52.0,29.45,South,187,0.0,3.6,57,0.00,,,0.00,WUHU216WMR968SP,2013-05-21 04:25:00,
2013-05-20 21:30:00,67.6,52.0,29.45,SE,137,0.0,3.6,57,0.00,,,0.00,WUHU216WMR968SP,2013-05-21 04:30:00,
2013-05-20 21:35:00,67.5,51.9,29.45,South,182,0.0,4.0,57,0.00,,,0.00,WUHU216WMR968SP,2013-05-21 04:35:00,
2013-05-20 21:40:00,67.3,51.7,29.45,SSW,207,2.7,4.0,57,0.00,,,0.00,WUHU216WMR968SP,2013-05-21 04:40:00,
2013-05-20 21:45:00,67.3,51.7,29.45,SSW,203,2.7,4.0,57,0.00,,,0.00,WUHU216WMR968SP,2013-05-21 04:45:00,
2013-05-20 21:50:00,67.1,52.0,29.45,SW,224,0.0,4.0,58,0.00,,,0.00,WUHU216WMR968SP,2013-05-21 04:50:00,
2013-05-20 21:55:00,66.7,52.1,29.45,WSW,247,2.2,4.0,59,0.00,,,0.00,WUHU216WMR968SP,2013-05-21 04:55:00,
2013-05-20 22:00:00,66.6,52.4,29.45,SW,229,2.2,4.0,60,0.00,,,0.00,WUHU216WMR968SP,2013-05-21 05:00:00,
2013-05-20 22:05:00,66.2,52.5,29.45,WSW,245,2.2,4.0,61,0.00,,,0.00,WUHU216WMR968SP,2013-05-21 05:05:00,
2013-05-20 22:10:00,66.0,52.8,29.45,SSW,206,0.0,4.0,62,0.00,,,0.00,WUHU216WMR968SP,2013-05-21 05:10:00,
2013-05-20 22:15:00,65.8,52.6,29.45,WSW,237,2.7,4.0,62,0.00,,,0.00,WUHU216WMR968SP,2013-05-21 05:15:00,
2013-05-20 22:20:00,65.7,52.9,29.45,WSW,256,0.0,4.0,63,0.00,,,0.00,WUHU216WMR968SP,2013-05-21 05:20:00,
2013-05-20 22:25:00,65.7,52.9,29.45,South,185,0.0,4.0,63,0.00,,,0.00,WUHU216WMR968SP,2013-05-21 05:25:00,
2013-05-20 22:30:00,65.7,52.9,29.45,ESE,110,0.0,4.0,63,0.00,,,0.00,WUHU216WMR968SP,2013-05-21 05:30:00,
2013-05-20 22:35:00,65.7,52.9,29.45,ESE,110,0.0,3.1,63,0.00,,,0.00,WUHU216WMR968SP,2013-05-21 05:35:00,
2013-05-20 22:40:00,65.7,52.9,29.45,SSE,147,0.0,0.0,63,0.00,,,0.00,WUHU216WMR968SP,2013-05-21 05:40:00,
2013-05-20 22:45:00,65.5,52.7,29.45,SSW,210,0.0,0.0,63,0.00,,,0.00,WUHU216WMR968SP,2013-05-21 05:45:00,
2013-05-20 22:50:00,65.3,52.5,29.45,SSW,213,0.0,2.7,63,0.00,,,0.00,WUHU216WMR968SP,2013-05-21 05:50:00,
2013-05-20 22:55:00,65.1,52.4,29.45,SW,235,0.0,2.7,63,0.00,,,0.00,WUHU216WMR968SP,2013-05-21 05:55:00,
2013-05-20 23:00:00,65.1,52.4,29.45,SW,234,0.0,2.7,63,0.00,,,0.00,WUHU216WMR968SP,2013-05-21 06:00:00,
2013-05-20 23:05:00,64.9,52.2,29.45,SW,234,0.0,0.0,63,0.00,,,0.00,WUHU216WMR968SP,2013-05-21 06:05:00,
2013-05-20 23:10:00,64.4,51.7,29.45,SW,235,0.0,0.0,63,0.00,,,0.00,WUHU216WMR968SP,2013-05-21 06:10:00,
2013-05-20 23:15:00,64.0,51.7,29.45,SW,235,0.0,0.0,64,0.00,,,0.00,WUHU216WMR968SP,2013-05-21 06:15:00,
2013-05-20 23:20:00,63.7,51.5,29.48,SW,234,0.0,0.0,64,0.00,,,0.00,WUHU216WMR968SP,2013-05-21 06:20:00,
2013-05-20 23:25:00,63.3,51.1,29.48,SW,235,0.0,0.0,64,0.00,,,0.00,WUHU216WMR968SP,2013-05-21 06:25:00,
2013-05-20 23:30:00,63.1,51.3,29.48,SW,235,0.0,0.0,65,0.00,,,0.00,WUHU216WMR968SP,2013-05-21 06:30:00,
2013-05-20 23:35:00,63.1,51.3,29.48,SW,235,0.0,0.0,65,0.00,,,0.00,WUHU216WMR968SP,2013-05-21 06:35:00,
2013-05-20 23:40:00,63.0,51.2,29.48,SW,235,0.0,0.0,65,0.00,,,0.00,WUHU216WMR968SP,2013-05-21 06:40:00,
2013-05-20 23:45:00,62.8,51.4,29.48,SW,235,0.0,0.0,66,0.00,,,0.00,WUHU216WMR968SP,2013-05-21 06:45:00,
2013-05-20 23:50:00,63.0,51.2,29.48,SW,235,0.0,0.0,65,0.00,,,0.00,WUHU216WMR968SP,2013-05-21 06:50:00,
2013-05-20 23:55:00,62.8,51.0,29.48,SW,235,0.0,0.0,65,0.00,,,0.00,WUHU216WMR968SP,2013-05-21 06:55:00,